Address 0x4abe9dc0416b2337a29b2f686cb4507238442764 4

Txn Hash Method
Block
From
To
Value [Txn Fee]
0x84e1cbba109d54e7dfec3abe3212cfc23f8ef152fdf3980bed62a25e2a866afaOpen Trove61836502022-02-16 19:17:22295 days 4 hrs ago0x4abe9dc0416b2337a29b2f686cb4507238442764OUT0x6387c0e385196fecb43d5fe37ebe9777b790a8820 AVAX0.12648245 25
0xee76bfc5a878ae0794a3a32295b45a32833013e541a768e022af0a5315beca20Open Trove61836352022-02-16 19:16:53295 days 4 hrs ago0x4abe9dc0416b2337a29b2f686cb4507238442764OUT0x6387c0e385196fecb43d5fe37ebe9777b790a8820 AVAX0.126302325 25
0xebcc67aa935949f4021a4466c5281d16c195d46c03bb7ff0bb4abe21da30a898Open Trove61836012022-02-16 19:15:43295 days 4 hrs ago0x4abe9dc0416b2337a29b2f686cb4507238442764OUT0x6387c0e385196fecb43d5fe37ebe9777b790a8820 AVAX0.1261255 25
0x7d32eb9f7d8b43b7379db4f064e8b5a4c4d37d14a5338ce2f514185b76bf92ccApprove61835932022-02-16 19:15:27295 days 4 hrs ago0x4abe9dc0416b2337a29b2f686cb4507238442764OUT0x5085f96fab5a4f4cd6acedf8054b431aacf298f90 AVAX0.001158375 25
0xe06cfb26a6fd645d985c4c533add3f56c245a6fb2d0db5d04450faa195b8be5cApprove61835892022-02-16 19:15:19295 days 4 hrs ago0x4abe9dc0416b2337a29b2f686cb4507238442764OUT0xdd30dff5f83f53789520118fc8ab15f5b2c2c8500 AVAX0.001158375 25
0x9db47d17d61d8276d61eaf4bb9e5a9b40d90a14e29ac014dde4777f26b8b7961Mint61834812022-02-16 19:11:43295 days 4 hrs ago0x4abe9dc0416b2337a29b2f686cb4507238442764OUT0x5085f96fab5a4f4cd6acedf8054b431aacf298f90 AVAX0.0018756 25
0x452aa261fb7b42b0810eafa89aaf881f7564f51255c2caa1fc42a28dbb080bd8Mint61834622022-02-16 19:11:02295 days 4 hrs ago0x4abe9dc0416b2337a29b2f686cb4507238442764OUT0xdd30dff5f83f53789520118fc8ab15f5b2c2c8500 AVAX0.0018756 25
0x5d8d1cbce5622fbe0c046f6aa5f8579d287669d98b9bb70da93eb1617d8023a4Enter31347702021-12-04 22:41:01369 days 1 hr ago0x4abe9dc0416b2337a29b2f686cb4507238442764OUT0xe81d3f95c887ce9a89198312774d4274eec7e43f0 AVAX0.0016460525
0xa00209fab77285853542454f506778b6b400cafe9899575d57fd7342fb43222eSwap ETH For Exa...31345622021-12-04 22:31:19369 days 1 hr ago0x4abe9dc0416b2337a29b2f686cb4507238442764OUT 0x929d2db4ff3d3ab88418d9994ab8aea621cf4ff30.138460586700689 AVAX0.0077918525
0xc34cca2345800a95f92c4685c14dfdad3368f6681e432742b79288c2fde728fcSwap Exact ETH F...31338182021-12-04 21:55:33369 days 1 hr ago0x4abe9dc0416b2337a29b2f686cb4507238442764OUT 0x929d2db4ff3d3ab88418d9994ab8aea621cf4ff30.5 AVAX0.0036253525
0x0f6aea20a7d058b9a261e9d57007c578b88e8391e231b170c41e03fe9d79ed53Add Liquidity ET...24571932021-11-11 11:09:16392 days 12 hrs ago0x4abe9dc0416b2337a29b2f686cb4507238442764OUT 0x4f86a87985a2ed1e843c0b93755ac06a3dbcc55e1 AVAX0.00448427525
0x07897286d410359773e8109191e68278fa183309194de07a9d35080b64666fe8Swap Exact ETH F...24571782021-11-11 11:07:54392 days 12 hrs ago0x4abe9dc0416b2337a29b2f686cb4507238442764OUT 0x4f86a87985a2ed1e843c0b93755ac06a3dbcc55e1 AVAX0.003631725
0x5bfabf4ba1c45074c4578b75bb88cca15cff4260fc4b64c96e29272ed8053175Swap Exact Token...24571382021-11-11 11:05:00392 days 12 hrs ago0x4abe9dc0416b2337a29b2f686cb4507238442764OUT 0x4f86a87985a2ed1e843c0b93755ac06a3dbcc55e0 AVAX0.00361837525
0x1b47f240c8db9d745122acca7137474be0854071f8f4b82b3efc75e8f70eac70Approve24571282021-11-11 11:04:13392 days 12 hrs ago0x4abe9dc0416b2337a29b2f686cb4507238442764OUT0x9a01bf917477dd9f5d715d188618fc8b7350cd220 AVAX0.00117982525
0xf5e758dded8702220df5356b81433c53ac4488709503c90607ed65dabe62d748Swap Exact ETH F...24571062021-11-11 11:02:18392 days 12 hrs ago0x4abe9dc0416b2337a29b2f686cb4507238442764OUT 0x4f86a87985a2ed1e843c0b93755ac06a3dbcc55e1 AVAX0.003631725
0xea63bceafc2641446e9e9cee7aaba3df010338337ee16b5c4a77be42f89382f1Enter23817292021-11-06 13:43:31397 days 10 hrs ago0x4abe9dc0416b2337a29b2f686cb4507238442764OUT0xe81d3f95c887ce9a89198312774d4274eec7e43f0 AVAX0.0020732525
0x833323481584e768eadf8771fcc3137688640c5d2f8681524dfa597dcf087edcApprove23817212021-11-06 13:43:04397 days 10 hrs ago0x4abe9dc0416b2337a29b2f686cb4507238442764OUT0xeddeb2ff49830f3aa30fee2f7fabc5136845304a0 AVAX0.001168125
0x4e602e7a64a9d9acc6f6ed234a181fa0bf82c77a12a880fb88e68eb824010f2fSwap Exact AVAX ...22928612021-11-01 23:16:14402 days 30 mins ago0x4abe9dc0416b2337a29b2f686cb4507238442764OUT 0x7e3411b04766089cfaa52db688855356a12f05d145 AVAX0.00395122525
0x5f5a9fe5bf4bdee67aee6df3f27661b09354680262bc4d85153a6de63fe36ad1Deposit22611152021-10-30 15:21:33404 days 8 hrs ago0x4abe9dc0416b2337a29b2f686cb4507238442764OUT0x6c34d503b5896bf6244e7890e519a0bd239c53e00 AVAX0.0016031525
0xac4a82ad5e5645bc8ce0fe13a967a0387cef3cdbcb91e577bd79078676d468fcApprove22611092021-10-30 15:21:05404 days 8 hrs ago0x4abe9dc0416b2337a29b2f686cb4507238442764OUT 0xe15cf65536f05320881ede9ac6b724ba505d3b1d0 AVAX0.0011613525
0x7259c91458770911d3a1609de964547613ca8571e08c3cb6fe5bd1a0e1b41ffb0xd934d0fc22611012021-10-30 15:19:15404 days 8 hrs ago0x4abe9dc0416b2337a29b2f686cb4507238442764OUT 0x6d89c216f1e19e12930341df38da368dc28723ff0 AVAX0.00567467525
0xf1cf428b261ce2b7370317262c2dba848496c450878ee079c9c18d198f0af67eApprove22610932021-10-30 15:17:55404 days 8 hrs ago0x4abe9dc0416b2337a29b2f686cb4507238442764OUT 0x51fb6b33a1fe4e847a856e8ca13a8be1a0f06d660 AVAX0.0011613525
0x6372196bb6baa3ed7fd3ac72b63534954dd420b6e02de7e8d621e022819932fdTransfer22610762021-10-30 15:15:44404 days 8 hrs ago0x572f4d80f10f663b5049f789546f25f70bb62a7f IN 0x4abe9dc0416b2337a29b2f686cb450723844276410 AVAX0.0006562531.25
0x0e3a0925be8084b8c4e09c93c99026d627d36e4cb20c3de94482dc832b9d4c1dDeposit19868012021-10-10 13:50:43424 days 9 hrs ago0x4abe9dc0416b2337a29b2f686cb4507238442764OUT0xf0b6db3ee1a7349ea8d3a38ba839d255cd75eddf0 AVAX0.003218072 26
0xa3f18d8b5d9b0b75a38e37037d01c995e8464682fa23c4529d65823d22c1491aDeposit19861972021-10-10 12:53:08424 days 10 hrs ago0x4abe9dc0416b2337a29b2f686cb4507238442764OUT0xf0b6db3ee1a7349ea8d3a38ba839d255cd75eddf0 AVAX0.003919188 26
[ Download CSV Export 
Latest 3 internal transactions
Parent Txn Hash Block From To Value
0xa00209fab77285853542454f506778b6b400cafe9899575d57fd7342fb43222e31345622021-12-04 22:31:19369 days 1 hr ago 0x929d2db4ff3d3ab88418d9994ab8aea621cf4ff30x4abe9dc0416b2337a29b2f686cb45072384427640.001684876284271224 AVAX
0x0f6aea20a7d058b9a261e9d57007c578b88e8391e231b170c41e03fe9d79ed5324571932021-11-11 11:09:16392 days 12 hrs ago 0x4f86a87985a2ed1e843c0b93755ac06a3dbcc55e0x4abe9dc0416b2337a29b2f686cb45072384427640.000000051637544396 AVAX
0x5bfabf4ba1c45074c4578b75bb88cca15cff4260fc4b64c96e29272ed805317524571382021-11-11 11:05:00392 days 12 hrs ago 0x4f86a87985a2ed1e843c0b93755ac06a3dbcc55e0x4abe9dc0416b2337a29b2f686cb45072384427640.994098168720355879 AVAX
[ Download CSV Export 
Loading

Contract Name:
0

Compiler Version
0

Optimization Enabled:
0

Other Settings:
-NA-
Block Transaction Gas Used Reward
Age Block Fee Address BC Fee Address Voting Power Jailed Incoming
Block Uncle Number Difficulty Gas Used Reward
Loading